Time;durP1;ratioP1;P1;durP2;ratioP2;P2;SDS_P1;SDS_P2;PMS_P1;PMS_P2;Temp;Humidity;BMP_temperature;BMP_pressure;BME280_temperature;BME280_humidity;BME280_pressure;Samples;Min_cycle;Max_cycle;Signal;HPM_P1;HPM_P2
2021/04/15 06:15:16;;;;;;;30.42;20.92;;;;;;;;;;4953462;29;20057;-46
2021/04/15 06:17:45;;;;;;;21.45;14.82;;;;;;;;;;4955569;29;20118;-46
2021/04/15 06:23:32;;;;;;;19.13;11.65;;;;;;;;;;5417536;23;20094;-53
2021/04/15 06:25:59;;;;;;;19.52;12.82;;;;;;;;;;4974664;28;20062;-51
2021/04/15 06:28:26;;;;;;;42.17;25.30;;;;;;;;;;4974119;28;20545;-51
2021/04/15 06:30:55;;;;;;;29.58;17.05;;;;;;;;;;4974616;28;20154;-51
2021/04/15 06:33:22;;;;;;;43.35;26.63;;;;;;;;;;4974315;28;20038;-53
2021/04/15 06:35:52;;;;;;;33.90;21.30;;;;;;;;;;4974315;28;20038;-52
2021/04/15 06:38:27;;;;;;;38.58;20.08;;;;;;;;;;4974485;28;20426;-53
2021/04/15 06:41:03;;;;;;;25.38;15.90;;;;;;;;;;4974105;28;20108;-53
2021/04/15 06:43:34;;;;;;;23.85;14.65;;;;;;;;;;4974427;28;20023;-52
2021/04/15 06:46:12;;;;;;;21.98;12.07;;;;;;;;;;4974103;28;20052;-52
2021/04/15 06:48:41;;;;;;;31.27;19.58;;;;;;;;;;4973845;28;20027;-53
2021/04/15 06:51:27;;;;;;;36.40;20.92;;;;;;;;;;4974235;28;20102;-51
2021/04/15 06:54:12;;;;;;;37.38;24.48;;;;;;;;;;4974083;28;20037;-54
2021/04/15 06:57:00;;;;;;;24.30;15.80;;;;;;;;;;4973716;28;20059;-53
2021/04/15 06:59:44;;;;;;;27.80;17.77;;;;;;;;;;4973893;28;20459;-52
2021/04/15 07:02:32;;;;;;;30.98;17.90;;;;;;;;;;4956421;28;20034;-53
2021/04/15 07:05:04;;;;;;;23.60;15.65;;;;;;;;;;4973846;28;20036;-53
2021/04/15 07:07:36;;;;;;;17.30;11.02;;;;;;;;;;4973302;28;20038;-52
2021/04/15 07:10:21;;;;;;;17.60;11.35;;;;;;;;;;4973864;28;20058;-53
2021/04/15 07:13:06;;;;;;;21.58;13.30;;;;;;;;;;4973649;28;20364;-53
2021/04/15 07:15:37;;;;;;;27.30;15.88;;;;;;;;;;4973689;28;20027;-52
2021/04/15 07:18:06;;;;;;;19.08;11.75;;;;;;;;;;4973558;28;20039;-52
2021/04/15 07:20:53;;;;;;;20.08;11.10;;;;;;;;;;4973498;28;20471;-51
2021/04/15 07:23:19;;;;;;;25.75;15.55;;;;;;;;;;4973340;28;20475;-52
2021/04/15 07:25:45;;;;;;;32.45;19.05;;;;;;;;;;4973552;28;20045;-50
2021/04/15 07:28:22;;;;;;;27.50;16.77;;;;;;;;;;4973130;28;20031;-48
2021/04/15 07:30:48;;;;;;;32.97;19.92;;;;;;;;;;4973476;28;20475;-46
2021/04/15 07:33:23;;;;;;;35.63;20.85;;;;;;;;;;4973451;28;20053;-47
2021/04/15 07:36:07;;;;;;;60.65;35.38;;;;;;;;;;4972884;28;20034;-51
2021/04/15 07:38:51;;;;;;;54.95;30.75;;;;;;;;;;4973466;28;20023;-50
2021/04/15 07:41:37;;;;;;;55.85;30.98;;;;;;;;;;4973765;28;20445;-48
2021/04/15 07:44:22;;;;;;;48.38;27.33;;;;;;;;;;4973323;28;20035;-46
2021/04/15 07:46:54;;;;;;;83.70;46.45;;;;;;;;;;4973107;28;20066;-51
2021/04/15 07:49:20;;;;;;;50.17;29.35;;;;;;;;;;4973303;28;20105;-48
2021/04/15 07:52:05;;;;;;;62.17;34.67;;;;;;;;;;4973060;28;20030;-48
2021/04/15 07:54:49;;;;;;;45.42;24.15;;;;;;;;;;4972942;28;20114;-48
2021/04/15 07:57:30;;;;;;;75.78;44.40;;;;;;;;;;4973339;28;20050;-49
2021/04/15 08:00:12;;;;;;;31.58;16.77;;;;;;;;;;4973103;28;20105;-51
2021/04/15 08:03:06;;;;;;;45.85;24.08;;;;;;;;;;4973169;28;20022;-50
2021/04/15 08:05:32;;;;;;;50.22;29.02;;;;;;;;;;4973218;28;20034;-51
2021/04/15 08:07:58;;;;;;;52.50;24.83;;;;;;;;;;4973228;28;20086;-50
2021/04/15 08:10:43;;;;;;;37.47;21.83;;;;;;;;;;4972936;28;20101;-51
2021/04/15 08:13:27;;;;;;;37.72;21.63;;;;;;;;;;4973197;28;20027;-50
2021/04/15 08:16:02;;;;;;;64.03;36.40;;;;;;;;;;4973297;28;20023;-51
2021/04/15 08:18:47;;;;;;;60.90;29.85;;;;;;;;;;4972904;28;20086;-50
2021/04/15 08:21:25;;;;;;;42.55;26.13;;;;;;;;;;4973036;28;20066;-52
2021/04/15 08:24:10;;;;;;;74.63;41.83;;;;;;;;;;4972752;28;20047;-51
2021/04/15 08:26:39;;;;;;;69.82;36.33;;;;;;;;;;4973213;28;20027;-50
2021/04/15 08:29:05;;;;;;;80.07;44.22;;;;;;;;;;4973268;28;20027;-51
2021/04/15 08:31:52;;;;;;;67.88;39.08;;;;;;;;;;4972844;28;20029;-47
2021/04/15 08:34:25;;;;;;;51.33;29.38;;;;;;;;;;4973044;28;20155;-47
2021/04/15 08:37:10;;;;;;;82.30;46.53;;;;;;;;;;4973224;28;20415;-49
2021/04/15 08:39:48;;;;;;;155.50;62.53;;;;;;;;;;4973136;28;20121;-49
2021/04/15 08:42:23;;;;;;;115.10;50.90;;;;;;;;;;4972775;28;20119;-50
2021/04/15 08:44:55;;;;;;;62.30;33.33;;;;;;;;;;4972957;28;20034;-46
2021/04/15 08:47:33;;;;;;;102.88;48.70;;;;;;;;;;4975109;28;20031;-49
2021/04/15 08:50:18;;;;;;;135.52;66.32;;;;;;;;;;4976302;28;20027;-48
2021/04/15 08:52:46;;;;;;;162.77;81.97;;;;;;;;;;4976246;28;20432;-49
2021/04/15 08:55:24;;;;;;;178.63;85.38;;;;;;;;;;4976184;28;20038;-48
2021/04/15 08:57:59;;;;;;;105.30;57.55;;;;;;;;;;4976020;28;20105;-50
2021/04/15 09:00:32;;;;;;;64.05;30.65;;;;;;;;;;4976162;28;20050;-51
2021/04/15 09:03:17;;;;;;;41.97;25.48;;;;;;;;;;4958354;28;20106;-50
2021/04/15 09:06:03;;;;;;;72.97;38.63;;;;;;;;;;4975632;28;20479;-51
2021/04/15 09:08:46;;;;;;;69.15;32.92;;;;;;;;;;4975899;28;20114;-50
2021/04/15 09:11:17;;;;;;;86.50;31.33;;;;;;;;;;4976223;28;20078;-49
2021/04/15 09:14:03;;;;;;;78.63;39.90;;;;;;;;;;4975911;28;20068;-54
2021/04/15 09:16:29;;;;;;;43.08;23.95;;;;;;;;;;4975023;28;20030;-51
2021/04/15 09:19:03;;;;;;;50.05;27.20;;;;;;;;;;4975793;28;20022;-49
2021/04/15 09:21:43;;;;;;;44.97;26.70;;;;;;;;;;4975599;28;20025;-48
2021/04/15 09:24:21;;;;;;;50.70;30.77;;;;;;;;;;4975451;28;20063;-48
2021/04/15 09:27:05;;;;;;;111.70;61.83;;;;;;;;;;4975832;28;20442;-47
2021/04/15 09:29:37;;;;;;;57.30;33.13;;;;;;;;;;4975491;28;20050;-54
2021/04/15 09:32:26;;;;;;;38.33;24.17;;;;;;;;;;4975633;28;20031;-53
2021/04/15 09:35:10;;;;;;;51.05;25.67;;;;;;;;;;4975420;28;20027;-53
2021/04/15 09:37:55;;;;;;;46.28;21.98;;;;;;;;;;4975259;28;20073;-50
2021/04/15 09:40:21;;;;;;;41.60;22.05;;;;;;;;;;4975076;28;20558;-52
2021/04/15 09:42:56;;;;;;;61.65;31.23;;;;;;;;;;4975193;28;20489;-51
2021/04/15 09:45:35;;;;;;;43.22;21.58;;;;;;;;;;4974951;28;20395;-51
2021/04/15 09:48:07;;;;;;;29.48;16.77;;;;;;;;;;4975128;28;20037;-51
2021/04/15 09:51:03;;;;;;;42.75;21.48;;;;;;;;;;4975263;28;20033;-52
2021/04/15 09:53:35;;;;;;;29.40;14.88;;;;;;;;;;4896375;29;20153;-50
2021/04/15 09:56:12;;;;;;;30.35;15.52;;;;;;;;;;4896479;29;20035;-53
2021/04/15 09:58:59;;;;;;;38.58;21.30;;;;;;;;;;4895916;29;20037;-49
2021/04/15 10:01:28;;;;;;;42.05;24.58;;;;;;;;;;4896670;29;20039;-49
2021/04/15 10:03:57;;;;;;;88.65;51.20;;;;;;;;;;4896157;29;20114;-47
2021/04/15 10:06:23;;;;;;;88.68;49.30;;;;;;;;;;4896615;29;20036;-49
2021/04/15 10:08:52;;;;;;;118.13;68.07;;;;;;;;;;4896158;29;20032;-48
2021/04/15 10:11:36;;;;;;;87.38;53.33;;;;;;;;;;4896454;29;20033;-45
2021/04/15 10:14:21;;;;;;;28.75;17.02;;;;;;;;;;4896401;29;20036;-48
2021/04/15 10:16:49;;;;;;;74.65;41.97;;;;;;;;;;4895951;29;20044;-47
2021/04/15 10:19:32;;;;;;;70.03;42.47;;;;;;;;;;4896286;29;20029;-51
2021/04/15 10:22:01;;;;;;;111.55;64.25;;;;;;;;;;4896065;29;20416;-49
2021/04/15 10:24:50;;;;;;;41.58;24.98;;;;;;;;;;4895620;29;20120;-50
2021/04/15 10:27:34;;;;;;;39.50;23.38;;;;;;;;;;4895738;29;20079;-48
2021/04/15 10:30:15;;;;;;;38.30;22.83;;;;;;;;;;4937694;28;20045;-49
2021/04/15 10:33:00;;;;;;;50.92;25.55;;;;;;;;;;4974150;28;20031;-52
2021/04/15 10:35:57;;;;;;;44.97;23.70;;;;;;;;;;4974138;28;20053;-50
2021/04/15 10:38:42;;;;;;;21.42;13.82;;;;;;;;;;4973968;28;20049;-51
2021/04/15 10:41:34;;;;;;;20.15;11.50;;;;;;;;;;4974263;28;20026;-49
2021/04/15 10:44:06;;;;;;;34.20;18.83;;;;;;;;;;4895664;29;20045;-50
2021/04/15 10:46:42;;;;;;;37.53;15.70;;;;;;;;;;4895590;29;20059;-50
2021/04/15 10:49:08;;;;;;;22.95;11.77;;;;;;;;;;4895699;29;20032;-50
2021/04/15 10:51:36;;;;;;;28.02;12.80;;;;;;;;;;4895408;29;20416;-49
2021/04/15 10:54:18;;;;;;;16.00;10.43;;;;;;;;;;4895327;29;20040;-49
2021/04/15 10:56:45;;;;;;;24.65;14.95;;;;;;;;;;4895745;29;20028;-50
2021/04/15 10:59:19;;;;;;;37.03;17.10;;;;;;;;;;4895435;29;20076;-49
2021/04/15 11:01:47;;;;;;;23.02;12.73;;;;;;;;;;4895682;29;20077;-49
2021/04/15 11:04:13;;;;;;;21.92;11.93;;;;;;;;;;4895345;29;20024;-49
2021/04/15 11:06:45;;;;;;;24.08;14.38;;;;;;;;;;4895372;29;20055;-50
2021/04/15 11:09:17;;;;;;;23.50;14.00;;;;;;;;;;4894784;29;20033;-50
2021/04/15 11:11:58;;;;;;;23.08;12.43;;;;;;;;;;4895141;29;20041;-50
2021/04/15 11:14:28;;;;;;;22.92;12.05;;;;;;;;;;4895599;29;20073;-50
2021/04/15 11:16:56;;;;;;;22.73;10.30;;;;;;;;;;4895053;29;20107;-51
2021/04/15 11:19:24;;;;;;;83.55;53.28;;;;;;;;;;4895065;29;20064;-50
2021/04/15 11:21:56;;;;;;;70.00;42.88;;;;;;;;;;4963392;28;20066;-47
2021/04/15 11:24:28;;;;;;;37.10;20.88;;;;;;;;;;4966075;28;20062;-49
2021/04/15 11:27:02;;;;;;;80.88;39.33;;;;;;;;;;4972690;28;20034;-48
2021/04/15 11:29:37;;;;;;;53.58;22.52;;;;;;;;;;4972436;28;20037;-48
2021/04/15 11:32:23;;;;;;;38.58;20.92;;;;;;;;;;4972340;28;20761;-50
2021/04/15 11:35:03;;;;;;;36.75;16.17;;;;;;;;;;4962377;28;20483;-49
2021/04/15 11:37:29;;;;;;;30.98;15.63;;;;;;;;;;4972580;28;20050;-48
2021/04/15 11:40:14;;;;;;;22.77;11.35;;;;;;;;;;4972094;28;20021;-50
2021/04/15 11:42:41;;;;;;;18.77;11.02;;;;;;;;;;4972271;28;20023;-48
2021/04/15 11:45:07;;;;;;;36.22;17.65;;;;;;;;;;4972471;28;20026;-50
2021/04/15 11:47:34;;;;;;;18.00;10.32;;;;;;;;;;4973016;28;20026;-50
2021/04/15 11:50:12;;;;;;;20.20;10.85;;;;;;;;;;4973348;28;20468;-52
2021/04/15 11:52:41;;;;;;;14.68;8.15;;;;;;;;;;4973013;28;20130;-48
2021/04/15 11:55:25;;;;;;;21.02;12.45;;;;;;;;;;4973153;28;20114;-48
2021/04/15 11:57:54;;;;;;;31.50;18.23;;;;;;;;;;4972916;28;20038;-49
2021/04/15 12:00:25;;;;;;;21.02;12.73;;;;;;;;;;4973197;28;20102;-49
2021/04/15 12:02:57;;;;;;;20.35;12.40;;;;;;;;;;4973000;28;20105;-48
2021/04/15 12:05:30;;;;;;;23.83;12.98;;;;;;;;;;4972914;28;20401;-48
2021/04/15 12:08:15;;;;;;;24.23;12.65;;;;;;;;;;4972954;28;20027;-47
2021/04/15 12:11:02;;;;;;;24.60;10.88;;;;;;;;;;4973258;28;20046;-48
2021/04/15 12:13:35;;;;;;;21.67;9.57;;;;;;;;;;4972916;28;20019;-49
2021/04/15 12:16:01;;;;;;;18.77;10.73;;;;;;;;;;4972735;28;20040;-49
2021/04/15 12:18:39;;;;;;;20.08;9.85;;;;;;;;;;4973214;28;20110;-48
2021/04/15 12:21:31;;;;;;;43.58;24.40;;;;;;;;;;4975064;28;20031;-48
2021/04/15 12:24:17;;;;;;;18.65;11.07;;;;;;;;;;4973369;28;20070;-48
2021/04/15 12:26:46;;;;;;;18.83;11.27;;;;;;;;;;4916980;29;20047;-49
2021/04/15 12:29:27;;;;;;;30.02;18.92;;;;;;;;;;4916766;29;20467;-47
2021/04/15 12:32:26;;;;;;;31.58;19.67;;;;;;;;;;4901003;29;20032;-47
2021/04/15 12:34:54;;;;;;;39.53;23.42;;;;;;;;;;4842102;29;20057;-47
2021/04/15 12:37:25;;;;;;;39.95;22.63;;;;;;;;;;4841144;29;20527;-53
2021/04/15 12:40:03;;;;;;;58.55;33.20;;;;;;;;;;4842164;29;20026;-48
2021/04/15 12:42:33;;;;;;;80.97;47.95;;;;;;;;;;4842297;29;20365;-52
2021/04/15 12:44:59;;;;;;;51.72;32.97;;;;;;;;;;4841809;29;20050;-49
2021/04/15 12:47:27;;;;;;;76.85;44.78;;;;;;;;;;4841953;29;20091;-50
2021/04/15 12:49:54;;;;;;;98.30;57.45;;;;;;;;;;4841647;29;20032;-50
2021/04/15 12:52:22;;;;;;;81.88;46.00;;;;;;;;;;4841944;29;20041;-50
2021/04/15 12:54:48;;;;;;;40.42;24.30;;;;;;;;;;4842013;29;20121;-50
2021/04/15 12:57:15;;;;;;;35.90;20.50;;;;;;;;;;4841763;29;20566;-48
2021/04/15 12:59:49;;;;;;;42.38;24.98;;;;;;;;;;4842054;29;20036;-47
2021/04/15 13:02:19;;;;;;;22.63;14.20;;;;;;;;;;4841954;29;20106;-49
2021/04/15 13:04:54;;;;;;;57.50;35.78;;;;;;;;;;4876080;29;20414;-49
2021/04/15 13:07:22;;;;;;;50.63;29.48;;;;;;;;;;4871300;29;20037;-52
2021/04/15 13:09:52;;;;;;;51.72;32.33;;;;;;;;;;4897529;29;20063;-48
2021/04/15 13:12:21;;;;;;;53.97;31.95;;;;;;;;;;4956735;29;20377;-49
2021/04/15 13:14:48;;;;;;;51.65;31.70;;;;;;;;;;4956106;29;20057;-48
2021/04/15 13:17:35;;;;;;;75.13;42.78;;;;;;;;;;4956475;28;20379;-49
2021/04/15 13:20:13;;;;;;;43.95;25.98;;;;;;;;;;4946235;29;20122;-50
2021/04/15 13:22:40;;;;;;;25.25;13.27;;;;;;;;;;4956119;29;20058;-49
2021/04/15 13:25:09;;;;;;;36.78;19.85;;;;;;;;;;4938776;29;20051;-50
2021/04/15 13:27:38;;;;;;;56.38;32.78;;;;;;;;;;4956002;29;20023;-51
2021/04/15 13:30:22;;;;;;;42.83;24.55;;;;;;;;;;4955839;28;20035;-49
2021/04/15 13:33:11;;;;;;;33.88;18.60;;;;;;;;;;4955446;28;20435;-49
2021/04/15 13:35:44;;;;;;;51.90;27.40;;;;;;;;;;4956257;29;20044;-49
2021/04/15 13:38:42;;;;;;;34.28;19.17;;;;;;;;;;4955551;29;20023;-48
2021/04/15 13:41:34;;;;;;;29.73;14.95;;;;;;;;;;4948921;29;20034;-49
2021/04/15 13:44:06;;;;;;;28.35;16.40;;;;;;;;;;4955620;28;20030;-49
2021/04/15 13:46:43;;;;;;;27.10;14.70;;;;;;;;;;4956300;28;20039;-48
2021/04/15 13:49:12;;;;;;;37.58;23.33;;;;;;;;;;4969556;28;20478;-49
2021/04/15 13:51:41;;;;;;;47.22;23.85;;;;;;;;;;4975203;28;20089;-48
2021/04/15 13:54:21;;;;;;;52.47;29.42;;;;;;;;;;4974832;28;20043;-50
2021/04/15 13:56:54;;;;;;;57.42;27.90;;;;;;;;;;4957557;28;20073;-50
2021/04/15 14:02:04;;;;;;;58.97;23.70;;;;;;;;;;4974795;28;20482;-48
2021/04/15 14:04:52;;;;;;;38.80;18.30;;;;;;;;;;4974885;28;20027;-49
2021/04/15 14:07:39;;;;;;;51.55;23.08;;;;;;;;;;4974968;28;20101;-48
2021/04/15 14:10:08;;;;;;;46.10;22.40;;;;;;;;;;4974680;28;20027;-49
2021/04/15 14:12:56;;;;;;;30.83;14.73;;;;;;;;;;4974597;28;20035;-49
2021/04/15 14:15:34;;;;;;;25.90;13.13;;;;;;;;;;4974635;28;20080;-48
2021/04/15 14:18:19;;;;;;;21.42;11.73;;;;;;;;;;4974557;28;20121;-49
2021/04/15 14:20:51;;;;;;;21.67;12.27;;;;;;;;;;4974410;28;20102;-48
2021/04/15 14:23:16;;;;;;;;;;;;;;;;;;4974869;28;20061;-48
2021/04/15 14:25:43;;;;;;;21.20;12.00;;;;;;;;;;4974204;28;19914;-49
2021/04/15 14:28:10;;;;;;;27.75;10.95;;;;;;;;;;4974384;28;20030;-47
2021/04/15 14:30:37;;;;;;;11.20;7.43;;;;;;;;;;4974229;28;20027;-49
2021/04/15 14:33:23;;;;;;;19.67;8.23;;;;;;;;;;4974353;28;20023;-48
2021/04/15 14:35:50;;;;;;;10.73;6.10;;;;;;;;;;4974086;28;20077;-50
2021/04/15 14:38:34;;;;;;;14.38;7.55;;;;;;;;;;4974071;28;20019;-51
2021/04/15 14:41:02;;;;;;;19.30;9.07;;;;;;;;;;4956513;28;20085;-50
2021/04/15 14:43:33;;;;;;;12.43;7.45;;;;;;;;;;4956780;28;20054;-51
2021/04/15 14:46:11;;;;;;;6.93;4.83;;;;;;;;;;4956530;28;20113;-49
2021/04/15 14:48:38;;;;;;;9.90;5.72;;;;;;;;;;4974685;28;20394;-50
2021/04/15 14:51:05;;;;;;;8.60;5.20;;;;;;;;;;4973858;28;20029;-49
2021/04/15 14:53:31;;;;;;;11.60;6.15;;;;;;;;;;4973835;28;20495;-52
2021/04/15 14:56:06;;;;;;;9.60;4.72;;;;;;;;;;4973889;28;20439;-50
2021/04/15 14:58:33;;;;;;;10.60;5.10;;;;;;;;;;4973655;28;20031;-51
2021/04/15 15:01:04;;;;;;;14.10;7.43;;;;;;;;;;4969079;28;20034;-49
2021/04/15 15:03:35;;;;;;;19.85;12.02;;;;;;;;;;4944083;28;20583;-49
2021/04/15 15:06:02;;;;;;;22.80;14.90;;;;;;;;;;4929470;28;20241;-48
2021/04/15 15:08:29;;;;;;;85.82;52.38;;;;;;;;;;4942728;28;20470;-50
2021/04/15 15:10:56;;;;;;;42.28;27.23;;;;;;;;;;4942295;28;20082;-49
2021/04/15 15:13:28;;;;;;;22.58;14.45;;;;;;;;;;4929455;28;20055;-48
2021/04/15 15:15:55;;;;;;;17.85;12.02;;;;;;;;;;4942403;28;20814;-48
2021/04/15 15:18:25;;;;;;;26.52;13.98;;;;;;;;;;4943218;28;20608;-48
2021/04/15 15:20:53;;;;;;;27.95;16.42;;;;;;;;;;4942870;28;20700;-49
2021/04/15 15:23:25;;;;;;;33.40;16.77;;;;;;;;;;4942321;28;20070;-49
2021/04/15 15:25:50;;;;;;;;;;;;;;;;;;4943125;28;20166;-48
2021/04/15 15:28:30;;;;;;;38.25;21.15;;;;;;;;;;4942135;28;20287;-49
2021/04/15 15:31:00;;;;;;;34.80;19.20;;;;;;;;;;4942255;28;20041;-49
2021/04/15 15:33:27;;;;;;;31.92;17.58;;;;;;;;;;4942345;28;20051;-49
2021/04/15 15:35:56;;;;;;;33.25;18.67;;;;;;;;;;4942783;28;20089;-47
2021/04/15 15:38:28;;;;;;;24.70;13.13;;;;;;;;;;4942197;28;20034;-47
2021/04/15 15:40:55;;;;;;;20.10;12.98;;;;;;;;;;4941916;28;20026;-49
2021/04/15 15:43:31;;;;;;;23.05;13.70;;;;;;;;;;4942121;28;20031;-48
2021/04/15 15:45:57;;;;;;;21.35;10.95;;;;;;;;;;4942153;28;20178;-48
2021/04/15 15:48:42;;;;;;;15.10;7.93;;;;;;;;;;4942267;28;20023;-48
2021/04/15 15:51:09;;;;;;;9.25;6.45;;;;;;;;;;4942613;28;20041;-48
2021/04/15 15:53:47;;;;;;;14.13;8.38;;;;;;;;;;4942076;28;20028;-48
2021/04/15 15:56:32;;;;;;;14.68;8.38;;;;;;;;;;4944724;28;20581;-48
2021/04/15 15:59:09;;;;;;;8.82;5.88;;;;;;;;;;4945916;28;20429;-48
2021/04/15 16:01:35;;;;;;;15.88;8.38;;;;;;;;;;4945793;28;20114;-47
2021/04/15 16:04:07;;;;;;;12.65;6.63;;;;;;;;;;4945888;28;20065;-48
2021/04/15 16:06:33;;;;;;;18.60;6.93;;;;;;;;;;4946047;28;20039;-47
2021/04/15 16:09:13;;;;;;;15.13;6.97;;;;;;;;;;4945849;28;20125;-48
2021/04/15 16:11:46;;;;;;;26.30;11.53;;;;;;;;;;4945899;28;20022;-48
2021/04/15 16:14:13;;;;;;;12.60;6.28;;;;;;;;;;4928109;28;20564;-48
2021/04/15 16:16:39;;;;;;;13.38;7.22;;;;;;;;;;4945875;28;20316;-48
2021/04/15 16:19:05;;;;;;;13.05;6.43;;;;;;;;;;4946000;28;20551;-49
2021/04/15 16:21:34;;;;;;;9.35;4.80;;;;;;;;;;4945987;28;20039;-48
2021/04/15 16:24:38;;;;;;;12.07;5.88;;;;;;;;;;4945606;28;20477;-48
2021/04/15 16:27:06;;;;;;;11.00;6.25;;;;;;;;;;4887901;29;20064;-49
2021/04/15 16:29:32;;;;;;;10.15;5.85;;;;;;;;;;4887977;29;20064;-48
2021/04/15 16:31:59;;;;;;;14.00;7.85;;;;;;;;;;4888216;29;20040;-48
2021/04/15 16:34:27;;;;;;;13.60;7.60;;;;;;;;;;4887769;29;20686;-48
2021/04/15 16:36:54;;;;;;;15.40;8.30;;;;;;;;;;4888350;29;20489;-49
2021/04/15 16:39:21;;;;;;;14.82;7.68;;;;;;;;;;4887690;29;21102;-48
2021/04/15 16:41:55;;;;;;;18.02;8.80;;;;;;;;;;4888220;29;20035;-47
2021/04/15 16:44:23;;;;;;;18.02;11.10;;;;;;;;;;4888298;29;20052;-48
2021/04/15 16:46:51;;;;;;;38.13;17.52;;;;;;;;;;4888310;29;20135;-48
2021/04/15 16:49:17;;;;;;;39.00;22.45;;;;;;;;;;4888514;29;20899;-48
2021/04/15 16:51:43;;;;;;;132.25;66.53;;;;;;;;;;4887872;29;20039;-47
2021/04/15 16:54:10;;;;;;;114.97;53.63;;;;;;;;;;4888253;29;20036;-48
2021/04/15 16:56:36;;;;;;;103.10;56.17;;;;;;;;;;4888150;29;20038;-50
2021/04/15 16:59:02;;;;;;;83.85;39.03;;;;;;;;;;4930200;28;20495;-47
2021/04/15 17:01:28;;;;;;;60.15;27.63;;;;;;;;;;4945679;28;20085;-47
2021/04/15 17:03:59;;;;;;;104.95;49.78;;;;;;;;;;4945019;28;21186;-50
2021/04/15 17:06:25;;;;;;;98.38;51.53;;;;;;;;;;4937895;28;20435;-49
2021/04/15 17:08:51;;;;;;;105.90;53.83;;;;;;;;;;4945247;28;20023;-48
2021/04/15 17:11:18;;;;;;;46.80;23.70;;;;;;;;;;4929891;28;20039;-50
2021/04/15 17:13:44;;;;;;;67.00;34.55;;;;;;;;;;4945109;28;20054;-51
2021/04/15 17:16:11;;;;;;;58.22;29.23;;;;;;;;;;4945994;28;20467;-50
2021/04/15 17:18:38;;;;;;;77.75;43.33;;;;;;;;;;4944833;28;20034;-50
2021/04/15 17:21:05;;;;;;;30.23;15.55;;;;;;;;;;4945166;28;20031;-50
2021/04/15 17:23:31;;;;;;;37.65;19.52;;;;;;;;;;4944482;28;20054;-48
2021/04/15 17:25:58;;;;;;;30.05;15.93;;;;;;;;;;4944900;28;20035;-50
2021/04/15 17:28:26;;;;;;;29.60;14.80;;;;;;;;;;4945232;28;20026;-50
2021/04/15 17:30:52;;;;;;;38.72;22.05;;;;;;;;;;4945148;28;20030;-50
2021/04/15 17:33:20;;;;;;;32.13;17.75;;;;;;;;;;4944992;28;20329;-49
2021/04/15 17:35:46;;;;;;;65.72;34.83;;;;;;;;;;4945288;28;20134;-52
2021/04/15 17:38:13;;;;;;;58.33;28.13;;;;;;;;;;4945077;28;20135;-50
2021/04/15 17:40:41;;;;;;;42.58;22.10;;;;;;;;;;4944499;28;20074;-49
2021/04/15 17:43:07;;;;;;;60.20;29.75;;;;;;;;;;4944879;28;21136;-51
2021/04/15 17:45:36;;;;;;;50.00;22.42;;;;;;;;;;4944916;28;20502;-51
2021/04/15 17:48:03;;;;;;;44.13;20.83;;;;;;;;;;4945065;28;20034;-49
2021/04/15 17:50:35;;;;;;;55.22;19.70;;;;;;;;;;4944509;28;20147;-50
2021/04/15 17:53:04;;;;;;;43.40;17.70;;;;;;;;;;4944249;28;20092;-50
2021/04/15 17:55:30;;;;;;;37.00;16.23;;;;;;;;;;4929617;28;20046;-51
2021/04/15 17:57:56;;;;;;;30.40;15.98;;;;;;;;;;4944666;28;20031;-49
2021/04/15 18:00:24;;;;;;;31.02;15.05;;;;;;;;;;4944034;28;20646;-50
2021/04/15 18:02:50;;;;;;;32.08;15.98;;;;;;;;;;4944104;28;20127;-51
2021/04/15 18:05:17;;;;;;;28.50;14.43;;;;;;;;;;4943982;28;20031;-50
2021/04/15 18:07:43;;;;;;;21.35;13.75;;;;;;;;;;4943459;28;20019;-51
2021/04/15 18:10:11;;;;;;;23.70;13.55;;;;;;;;;;4943921;28;20038;-49
2021/04/15 18:12:37;;;;;;;21.33;13.07;;;;;;;;;;4944420;28;20038;-50
2021/04/15 18:15:04;;;;;;;24.25;14.90;;;;;;;;;;4943743;28;20023;-52
2021/04/15 18:17:31;;;;;;;45.13;22.58;;;;;;;;;;4944132;28;20594;-48
2021/04/15 18:19:57;;;;;;;55.13;22.55;;;;;;;;;;4943652;28;20163;-49
2021/04/15 18:22:24;;;;;;;56.97;25.02;;;;;;;;;;4944438;28;20818;-52
2021/04/15 18:24:50;;;;;;;62.60;31.92;;;;;;;;;;4943483;28;20047;-51
2021/04/15 18:27:16;;;;;;;69.68;37.28;;;;;;;;;;4944992;28;20049;-49
2021/04/15 18:29:42;;;;;;;104.40;57.13;;;;;;;;;;4944392;28;20023;-52
2021/04/15 18:32:11;;;;;;;194.60;106.53;;;;;;;;;;4925569;28;20039;-49
2021/04/15 18:34:37;;;;;;;294.70;140.05;;;;;;;;;;4943705;28;20038;-50
2021/04/15 18:37:08;;;;;;;333.00;156.65;;;;;;;;;;4943701;28;20058;-50
2021/04/15 18:39:34;;;;;;;344.25;162.85;;;;;;;;;;4943541;28;20027;-50
2021/04/15 18:42:01;;;;;;;373.20;177.82;;;;;;;;;;4943443;28;20349;-50
2021/04/15 18:44:27;;;;;;;335.92;151.77;;;;;;;;;;4943889;28;20045;-50
2021/04/15 18:46:56;;;;;;;306.02;141.75;;;;;;;;;;4943910;28;20038;-50
2021/04/15 18:49:24;;;;;;;252.90;122.00;;;;;;;;;;4944047;28;20035;-51
2021/04/15 18:51:51;;;;;;;247.23;115.85;;;;;;;;;;4943767;28;20030;-51
2021/04/15 18:54:17;;;;;;;211.20;100.00;;;;;;;;;;4943403;28;20031;-48
2021/04/15 18:56:44;;;;;;;219.73;102.53;;;;;;;;;;4943391;28;20120;-49
2021/04/15 18:59:10;;;;;;;188.23;94.57;;;;;;;;;;4973557;23;20108;-49
2021/04/15 19:01:36;;;;;;;187.65;91.97;;;;;;;;;;4954043;28;20031;-47
2021/04/15 19:04:02;;;;;;;185.95;89.40;;;;;;;;;;4953324;28;20018;-46
2021/04/15 19:06:29;;;;;;;182.80;89.10;;;;;;;;;;4952754;28;20034;-47
2021/04/15 19:08:57;;;;;;;197.35;91.63;;;;;;;;;;4953015;28;20062;-46
2021/04/15 19:11:24;;;;;;;197.82;91.80;;;;;;;;;;4952876;28;20031;-45
2021/04/15 19:13:52;;;;;;;190.80;92.97;;;;;;;;;;4954846;28;20037;-52
2021/04/15 19:16:18;;;;;;;191.13;89.28;;;;;;;;;;4944344;28;21317;-45
2021/04/15 19:18:44;;;;;;;171.77;87.03;;;;;;;;;;4953202;28;20922;-45
2021/04/15 19:21:12;;;;;;;160.18;78.03;;;;;;;;;;4952537;28;20015;-50
2021/04/15 19:23:38;;;;;;;155.48;75.88;;;;;;;;;;4953028;28;20883;-48
2021/04/15 19:26:05;;;;;;;150.15;79.20;;;;;;;;;;4943839;28;20039;-46
2021/04/15 19:28:33;;;;;;;117.18;59.42;;;;;;;;;;4952773;28;20392;-47
2021/04/15 19:31:00;;;;;;;114.30;58.55;;;;;;;;;;4952248;28;20345;-49
2021/04/15 19:33:26;;;;;;;85.70;45.42;;;;;;;;;;4952725;28;20583;-47
2021/04/15 19:35:53;;;;;;;97.32;49.00;;;;;;;;;;4943666;28;20089;-52
2021/04/15 19:38:21;;;;;;;110.43;53.85;;;;;;;;;;4936716;28;20514;-49
2021/04/15 19:40:47;;;;;;;133.80;71.03;;;;;;;;;;4952993;28;20058;-45
2021/04/15 19:43:13;;;;;;;145.05;79.32;;;;;;;;;;4952435;28;20035;-47
2021/04/15 19:45:40;;;;;;;125.88;75.80;;;;;;;;;;4953093;28;20036;-48
2021/04/15 19:48:07;;;;;;;119.10;65.43;;;;;;;;;;4952751;28;20072;-52
2021/04/15 19:50:35;;;;;;;101.55;54.85;;;;;;;;;;5082738;23;20114;-50
2021/04/15 19:53:01;;;;;;;101.15;52.25;;;;;;;;;;4932922;28;20063;-50
2021/04/15 19:55:28;;;;;;;122.00;59.08;;;;;;;;;;4933378;28;20032;-53
2021/04/15 19:57:54;;;;;;;92.53;47.85;;;;;;;;;;4933369;28;20090;-49
2021/04/15 20:00:28;;;;;;;82.80;42.53;;;;;;;;;;4932857;28;20778;-50
2021/04/15 20:02:55;;;;;;;81.28;43.58;;;;;;;;;;4933306;28;20031;-47
2021/04/15 20:05:21;;;;;;;86.55;45.63;;;;;;;;;;4933344;28;20383;-52
2021/04/15 20:07:47;;;;;;;85.85;44.25;;;;;;;;;;4932771;28;20031;-51
2021/04/15 20:10:19;;;;;;;148.55;81.97;;;;;;;;;;4933321;28;20035;-48
2021/04/15 20:12:45;;;;;;;141.63;77.40;;;;;;;;;;4932815;28;20031;-48
2021/04/15 20:15:12;;;;;;;134.20;66.15;;;;;;;;;;4933028;28;20034;-48
2021/04/15 20:17:38;;;;;;;108.85;59.80;;;;;;;;;;4932905;28;20031;-50
2021/04/15 20:20:05;;;;;;;115.15;59.03;;;;;;;;;;4933434;28;20391;-47
2021/04/15 20:22:31;;;;;;;101.18;54.35;;;;;;;;;;4932640;28;20035;-48
2021/04/15 20:24:57;;;;;;;107.07;55.88;;;;;;;;;;4916630;28;20861;-47
2021/04/15 20:27:23;;;;;;;92.65;49.17;;;;;;;;;;4932431;28;20035;-48
2021/04/15 20:29:51;;;;;;;87.63;45.65;;;;;;;;;;4932755;28;20843;-49
2021/04/15 20:32:17;;;;;;;85.95;44.78;;;;;;;;;;4932783;28;20027;-50
2021/04/15 20:34:43;;;;;;;100.68;52.88;;;;;;;;;;4932565;28;20101;-47
2021/04/15 20:37:14;;;;;;;74.50;37.35;;;;;;;;;;4933071;28;20063;-48
2021/04/15 20:39:41;;;;;;;64.25;32.42;;;;;;;;;;4932950;28;20152;-47
2021/04/15 20:42:08;;;;;;;88.63;47.63;;;;;;;;;;4935197;28;20038;-49
2021/04/15 20:44:35;;;;;;;72.03;38.55;;;;;;;;;;4936165;28;20031;-50
2021/04/15 20:47:01;;;;;;;78.15;40.60;;;;;;;;;;4936365;28;20045;-49
2021/04/15 20:49:27;;;;;;;80.57;42.95;;;;;;;;;;4935574;28;20523;-48
2021/04/15 20:51:53;;;;;;;76.18;40.33;;;;;;;;;;4936644;28;20090;-50
2021/04/15 20:54:19;;;;;;;59.67;36.58;;;;;;;;;;4936173;28;20019;-48
2021/04/15 20:56:49;;;;;;;59.22;35.25;;;;;;;;;;4935935;28;20034;-49
2021/04/15 20:59:16;;;;;;;56.38;30.70;;;;;;;;;;4935606;28;20085;-49
2021/04/15 21:01:42;;;;;;;56.70;28.00;;;;;;;;;;4936666;28;20033;-51
2021/04/15 21:04:08;;;;;;;48.13;25.63;;;;;;;;;;4935811;28;20785;-49
2021/04/15 21:06:35;;;;;;;47.22;26.50;;;;;;;;;;4936037;28;20035;-49